createdAt,value
2017-05-26T00:03:33.980Z,63.00
2017-05-26T00:06:02.979Z,66.20
2017-05-26T00:08:31.989Z,66.50
2017-05-26T00:11:01.023Z,67.40
2017-05-26T00:13:30.026Z,68.70
2017-05-26T00:16:05.851Z,69.20
2017-05-26T00:19:04.641Z,70.50
2017-05-26T00:21:33.684Z,71.50
2017-05-26T00:24:02.691Z,71.70
2017-05-26T00:26:31.716Z,72.30
2017-05-26T00:29:06.827Z,72.20
2017-05-26T00:31:35.821Z,72.60
2017-05-26T00:34:04.844Z,72.60
2017-05-26T00:37:04.103Z,72.30
2017-05-26T00:43:03.765Z,73.30
2017-05-26T00:45:32.763Z,73.60
2017-05-26T00:48:05.670Z,74.30
2017-05-26T00:50:34.675Z,74.30
2017-05-26T00:53:03.672Z,74.60
2017-05-26T00:55:32.720Z,74.60
2017-05-26T00:58:01.741Z,75.00
2017-05-26T01:00:30.760Z,75.50
2017-05-26T01:02:59.817Z,75.60
2017-05-26T01:05:28.831Z,75.80
2017-05-26T01:08:06.036Z,75.80
2017-05-26T01:10:35.037Z,76.00
2017-05-26T01:13:04.031Z,76.50
2017-05-26T01:15:33.058Z,76.30
2017-05-26T01:18:02.064Z,76.10
2017-05-26T01:20:31.070Z,76.30
2017-05-26T01:26:01.686Z,77.60
2017-05-26T01:28:30.692Z,76.60
2017-05-26T01:31:06.905Z,76.10
2017-05-26T01:33:35.920Z,74.90
2017-05-26T01:39:05.010Z,71.20
2017-05-26T01:41:34.023Z,70.50
2017-05-26T01:44:03.099Z,70.20
2017-05-26T01:52:33.606Z,69.00
2017-05-26T01:55:06.562Z,68.40
2017-05-26T01:57:35.604Z,67.80
2017-05-26T02:00:04.635Z,67.60
2017-05-26T02:02:33.655Z,69.10
2017-05-26T02:05:02.782Z,68.90
2017-05-26T02:07:31.776Z,67.90
2017-05-26T02:10:00.773Z,67.00
2017-05-26T02:12:29.807Z,67.60
2017-05-26T02:14:58.800Z,68.00
2017-05-26T02:17:27.786Z,68.30
2017-05-26T02:20:06.762Z,67.60
2017-05-26T02:22:35.762Z,68.20
2017-05-26T02:25:04.753Z,67.40
2017-05-26T02:27:33.787Z,67.20
2017-05-26T02:30:02.769Z,67.00
2017-05-26T02:32:31.789Z,67.00
2017-05-26T02:35:00.914Z,66.80
2017-05-26T02:37:29.906Z,66.90
2017-05-26T02:39:58.898Z,66.70
2017-05-26T02:45:29.533Z,66.80
2017-05-26T02:48:06.005Z,66.80
2017-05-26T02:50:35.038Z,66.70
2017-05-26T02:53:04.029Z,66.80
2017-05-26T02:55:33.032Z,66.30
2017-05-26T02:58:02.086Z,66.60
2017-05-26T03:00:31.073Z,66.50
2017-05-26T03:03:00.074Z,66.40
2017-05-26T03:05:29.218Z,66.60
2017-05-26T03:07:58.213Z,66.50
2017-05-26T03:10:27.207Z,66.40
2017-05-26T03:12:56.269Z,67.30
2017-05-26T03:15:25.281Z,66.40
2017-05-26T03:17:54.289Z,66.40
2017-05-26T03:20:23.332Z,66.70
2017-05-26T03:22:52.333Z,66.30
2017-05-26T03:25:20.618Z,66.30
2017-05-26T03:28:06.333Z,66.20
2017-05-26T03:30:35.333Z,67.00
2017-05-26T03:33:04.349Z,67.80
2017-05-26T03:35:33.392Z,67.30
2017-05-26T03:38:06.139Z,66.60
2017-05-26T03:40:35.177Z,66.60
2017-05-26T03:43:04.168Z,67.20
2017-05-26T03:45:33.185Z,66.40
2017-05-26T03:48:02.330Z,66.40
2017-05-26T03:50:31.335Z,66.40
2017-05-26T03:53:00.416Z,66.30
2017-05-26T03:55:29.451Z,66.70
2017-05-26T03:58:05.304Z,66.50
2017-05-26T04:00:34.431Z,66.40
2017-05-26T04:03:03.435Z,66.50
2017-05-26T04:08:10.533Z,66.30
2017-05-26T04:10:39.543Z,66.30
2017-05-26T04:13:08.545Z,66.30
2017-05-26T04:15:37.586Z,66.40
2017-05-26T04:18:06.604Z,66.50
2017-05-26T04:20:35.605Z,66.30
2017-05-26T04:23:04.723Z,66.30
2017-05-26T04:25:33.725Z,66.20
2017-05-26T04:28:02.717Z,66.80
2017-05-26T04:30:31.766Z,66.70
2017-05-26T04:33:00.766Z,67.50
2017-05-26T04:35:29.774Z,68.30
2017-05-26T04:38:06.039Z,68.30
2017-05-26T04:40:35.035Z,69.90
2017-05-26T04:43:04.056Z,69.30
2017-05-26T04:45:33.099Z,70.60
2017-05-26T04:48:08.266Z,70.60
2017-05-26T04:50:37.312Z,71.40
2017-05-26T04:53:06.310Z,72.00
2017-05-26T04:55:35.313Z,72.90
2017-05-26T04:58:04.357Z,73.00
2017-05-26T05:00:33.364Z,73.10
2017-05-26T05:03:02.361Z,73.20
2017-05-26T05:05:31.425Z,73.70
2017-05-26T05:08:00.435Z,73.20
2017-05-26T05:10:29.438Z,73.50
2017-05-26T05:12:58.493Z,73.70
2017-05-26T05:15:27.500Z,73.30
2017-05-26T05:17:56.508Z,73.00
2017-05-26T05:23:26.818Z,73.10
2017-05-26T05:25:55.839Z,73.50
2017-05-26T05:28:24.854Z,73.90
2017-05-26T05:30:53.926Z,73.60
2017-05-26T05:33:22.935Z,72.50
2017-05-26T05:35:51.957Z,72.70
2017-05-26T05:38:20.996Z,72.80
2017-05-26T05:41:06.755Z,73.00
2017-05-26T05:43:35.805Z,73.30
2017-05-26T05:46:04.807Z,72.20
2017-05-26T05:48:41.489Z,72.20
2017-05-26T05:51:10.488Z,71.90
2017-05-26T05:53:39.500Z,72.00
2017-05-26T05:56:08.745Z,72.70
2017-05-26T05:58:37.746Z,73.00
2017-05-26T06:01:06.950Z,72.40
2017-05-26T06:03:36.022Z,72.40
2017-05-26T06:06:05.023Z,73.20
2017-05-26T06:08:34.028Z,72.70
2017-05-26T06:11:06.930Z,71.60
2017-05-26T06:13:35.946Z,72.10
2017-05-26T06:16:04.953Z,72.10
2017-05-26T06:18:34.019Z,72.30
2017-05-26T06:21:03.027Z,71.90
2017-05-26T06:29:33.869Z,72.00
2017-05-26T06:32:06.568Z,71.00
2017-05-26T06:35:04.336Z,71.10
2017-05-26T06:38:03.027Z,71.00
2017-05-26T06:41:04.947Z,69.70
2017-05-26T06:47:04.490Z,70.90
2017-05-26T06:53:04.337Z,70.70
2017-05-26T06:55:33.340Z,69.90
2017-05-26T06:58:06.241Z,69.40
2017-05-26T07:01:05.673Z,70.40
2017-05-26T07:06:12.785Z,69.40
2017-05-26T07:09:05.552Z,68.10
2017-05-26T07:14:12.620Z,67.70
2017-05-26T07:17:05.266Z,69.30
2017-05-26T07:25:07.278Z,65.90
2017-05-26T07:27:36.276Z,65.90
2017-05-26T07:30:05.317Z,64.70
2017-05-26T07:32:34.326Z,65.90
2017-05-26T07:35:03.384Z,65.30
2017-05-26T07:43:34.382Z,65.50
2017-05-26T07:46:03.375Z,61.30
2017-05-26T07:48:32.418Z,61.60
2017-05-26T07:51:01.414Z,61.60
2017-05-26T07:53:30.398Z,60.20
2017-05-26T07:56:05.954Z,61.30
2017-05-26T07:58:34.943Z,60.70
2017-05-26T08:01:03.939Z,60.40
2017-05-26T08:06:34.218Z,58.00
2017-05-26T08:09:06.974Z,59.20
2017-05-26T08:11:36.020Z,58.40
2017-05-26T08:14:05.003Z,59.60
2017-05-26T08:19:34.935Z,58.80
2017-05-26T08:22:03.939Z,58.40
2017-05-26T08:24:32.923Z,57.70
2017-05-26T08:27:01.970Z,56.90
2017-05-26T08:29:30.971Z,56.90
2017-05-26T08:32:05.754Z,55.20
2017-05-26T08:34:34.795Z,55.90
2017-05-26T08:37:07.399Z,55.40
2017-05-26T08:39:36.459Z,56.30
2017-05-26T08:42:05.462Z,54.70
2017-05-26T08:44:34.493Z,56.30
2017-05-26T08:47:03.522Z,55.80
2017-05-26T08:52:52.999Z,56.50
2017-05-26T08:55:21.993Z,55.20
2017-05-26T08:58:05.682Z,55.40
2017-05-26T09:00:34.722Z,54.80
2017-05-26T09:03:03.860Z,53.20
2017-05-26T09:05:32.916Z,55.90
2017-05-26T09:08:01.905Z,53.90
2017-05-26T09:10:30.896Z,53.70
2017-05-26T09:12:59.926Z,53.00
2017-05-26T09:15:28.923Z,54.00
2017-05-26T09:18:05.979Z,52.40
2017-05-26T09:20:34.970Z,52.90
2017-05-26T09:23:03.987Z,52.90
2017-05-26T09:25:33.031Z,53.40
2017-05-26T09:28:08.108Z,51.40
2017-05-26T09:30:37.124Z,54.10
2017-05-26T09:33:06.115Z,51.60
2017-05-26T09:35:35.163Z,52.60
2017-05-26T09:38:05.105Z,53.10
2017-05-26T09:41:04.661Z,53.00
2017-05-26T09:43:33.684Z,51.60
2017-05-26T09:46:02.673Z,51.00
2017-05-26T09:48:31.691Z,51.20
2017-05-26T09:51:00.738Z,50.50
2017-05-26T09:53:29.732Z,50.80
2017-05-26T09:56:06.295Z,51.00
2017-05-26T09:58:35.301Z,52.70
2017-05-26T10:01:04.351Z,52.40
2017-05-26T10:06:34.501Z,49.40
2017-05-26T10:09:03.499Z,49.90
2017-05-26T10:11:32.546Z,50.20
2017-05-26T10:14:07.282Z,49.90
2017-05-26T10:16:55.571Z,50.30
2017-05-26T10:19:24.554Z,50.20
2017-05-26T10:21:53.594Z,50.10
2017-05-26T10:27:23.752Z,47.50
2017-05-26T10:29:52.751Z,49.90
2017-05-26T10:32:21.819Z,48.10
2017-05-26T10:34:50.856Z,49.50
2017-05-26T10:37:20.238Z,48.90
2017-05-26T10:39:49.278Z,47.30
2017-05-26T10:42:18.288Z,49.00
2017-05-26T10:44:47.360Z,47.30
2017-05-26T10:47:16.402Z,47.70
2017-05-26T10:49:45.413Z,48.00
2017-05-26T10:52:14.458Z,46.10
2017-05-26T10:54:42.801Z,46.00
2017-05-26T10:57:11.834Z,47.10
2017-05-26T10:59:40.849Z,47.30
2017-05-26T11:02:09.849Z,47.80
2017-05-26T11:05:05.401Z,45.20
2017-05-26T11:07:34.438Z,47.30
2017-05-26T11:10:07.026Z,46.70
2017-05-26T11:12:36.065Z,46.80
2017-05-26T11:15:05.057Z,47.50
2017-05-26T11:20:34.974Z,47.40
2017-05-26T11:23:07.787Z,47.00
2017-05-26T11:25:36.785Z,48.00
2017-05-26T11:28:05.786Z,48.00
2017-05-26T11:30:34.839Z,48.30
2017-05-26T11:33:03.876Z,47.90
2017-05-26T11:35:32.918Z,47.40
2017-05-26T11:38:05.289Z,46.60
2017-05-26T11:41:04.576Z,47.70
2017-05-26T11:43:33.620Z,47.00
2017-05-26T11:46:02.637Z,46.60
2017-05-26T11:48:31.709Z,47.30
2017-05-26T11:51:00.710Z,48.00
2017-05-26T11:53:29.751Z,47.50
2017-05-26T11:55:58.767Z,47.80
2017-05-26T11:58:27.752Z,47.50
2017-05-26T12:00:56.795Z,47.90
2017-05-26T12:03:25.823Z,47.20
2017-05-26T12:06:07.771Z,46.70
2017-05-26T12:08:36.790Z,47.50
2017-05-26T12:11:05.831Z,46.50
2017-05-26T12:13:34.860Z,46.70
2017-05-26T12:16:03.870Z,46.80
2017-05-26T12:18:32.928Z,47.40
2017-05-26T12:21:08.474Z,46.50
2017-05-26T12:23:37.531Z,46.70
2017-05-26T12:26:06.534Z,46.70
2017-05-26T12:28:42.710Z,45.80
2017-05-26T12:34:12.303Z,47.30
2017-05-26T12:36:41.327Z,45.40
2017-05-26T12:39:10.324Z,44.60
2017-05-26T12:41:39.377Z,45.90
2017-05-26T12:44:08.413Z,45.50
2017-05-26T12:46:37.506Z,45.80
2017-05-26T12:49:33.075Z,46.10
2017-05-26T12:52:02.112Z,44.80
2017-05-26T12:54:31.157Z,46.00
2017-05-26T12:57:00.198Z,46.30
2017-05-26T12:59:29.252Z,46.40
2017-05-26T13:02:05.764Z,45.50
2017-05-26T13:05:04.500Z,45.10
2017-05-26T13:07:33.497Z,45.90
2017-05-26T13:10:02.552Z,46.70
2017-05-26T13:12:31.632Z,45.90
2017-05-26T13:15:00.668Z,46.00
2017-05-26T13:18:04.359Z,46.10
2017-05-26T13:20:33.376Z,45.40
2017-05-26T13:23:02.407Z,46.10
2017-05-26T13:25:31.450Z,46.10
2017-05-26T13:28:00.462Z,46.50
2017-05-26T13:30:29.524Z,47.70
2017-05-26T13:32:58.530Z,47.00
2017-05-26T13:35:27.522Z,47.70
2017-05-26T13:37:56.560Z,47.60
2017-05-26T13:43:26.286Z,47.20
2017-05-26T13:45:55.286Z,47.80
2017-05-26T13:48:24.361Z,47.60
2017-05-26T13:50:53.364Z,48.40
2017-05-26T13:53:22.391Z,47.90
2017-05-26T13:56:05.927Z,47.90
2017-05-26T13:58:42.956Z,48.40
2017-05-26T14:01:12.010Z,49.20
2017-05-26T14:03:41.029Z,48.80
2017-05-26T14:06:10.154Z,49.20
2017-05-26T14:08:39.198Z,48.90
2017-05-26T14:11:08.252Z,49.30
2017-05-26T14:13:37.261Z,48.90
2017-05-26T14:16:06.327Z,48.50
2017-05-26T14:18:43.195Z,48.30
2017-05-26T14:21:12.199Z,48.10
2017-05-26T14:23:44.913Z,47.80
2017-05-26T14:29:15.487Z,48.00
2017-05-26T14:31:44.523Z,48.20
2017-05-26T14:34:13.529Z,48.10
2017-05-26T14:36:42.609Z,48.50
2017-05-26T14:39:11.623Z,48.80
2017-05-26T14:41:40.680Z,47.60
2017-05-26T14:44:09.682Z,47.70
2017-05-26T14:46:38.690Z,48.00
2017-05-26T14:49:07.713Z,47.10
2017-05-26T14:52:05.238Z,46.50
2017-05-26T14:54:34.272Z,43.30
2017-05-26T14:57:03.296Z,45.30
2017-05-26T14:59:32.325Z,46.30
2017-05-26T15:02:01.356Z,46.30
2017-05-26T15:04:30.389Z,46.00
2017-05-26T15:06:59.476Z,45.70
2017-05-26T15:09:28.488Z,46.30
2017-05-26T15:11:57.496Z,46.10
2017-05-26T15:14:26.565Z,46.50
2017-05-26T15:17:08.451Z,46.00
2017-05-26T15:19:37.514Z,46.10
2017-05-26T15:24:45.061Z,48.00
2017-05-26T15:27:14.102Z,49.00
2017-05-26T15:29:43.109Z,48.40
2017-05-26T15:32:12.111Z,48.10
2017-05-26T15:34:41.158Z,48.50
2017-05-26T15:37:10.185Z,48.60
2017-05-26T15:39:39.192Z,48.80
2017-05-26T15:42:08.213Z,48.80
2017-05-26T15:44:37.224Z,48.80
2017-05-26T15:47:06.253Z,47.50
2017-05-26T15:50:05.416Z,43.90
2017-05-26T15:52:53.715Z,42.20
2017-05-26T15:55:22.707Z,41.70
2017-05-26T15:57:51.748Z,41.90
2017-05-26T16:00:20.738Z,41.40
2017-05-26T16:02:49.768Z,41.10
2017-05-26T16:05:18.773Z,42.70
2017-05-26T16:08:04.455Z,42.70
2017-05-26T16:13:34.728Z,45.00
2017-05-26T16:16:07.406Z,43.00
2017-05-26T16:18:43.819Z,41.90
2017-05-26T16:21:12.838Z,41.70
2017-05-26T16:24:06.019Z,41.60
2017-05-26T16:27:05.426Z,42.30
2017-05-26T16:29:34.452Z,41.50
2017-05-26T16:32:07.305Z,39.30
2017-05-26T16:35:04.703Z,39.00
2017-05-26T16:37:33.701Z,39.90
2017-05-26T16:40:08.473Z,38.90
2017-05-26T16:42:54.071Z,39.40
2017-05-26T16:45:23.105Z,39.80
2017-05-26T16:48:05.717Z,39.20
2017-05-26T16:51:04.785Z,38.40
2017-05-26T16:53:33.786Z,38.90
2017-05-26T16:56:08.508Z,40.90
2017-05-26T16:58:44.065Z,40.90
2017-05-26T17:01:13.094Z,41.50
2017-05-26T17:04:05.260Z,41.90
2017-05-26T17:07:04.616Z,41.90
2017-05-26T17:09:33.677Z,42.50
2017-05-26T17:12:06.554Z,42.00
2017-05-26T17:20:15.246Z,43.20
2017-05-26T17:22:54.428Z,43.50
2017-05-26T17:25:23.431Z,44.20
2017-05-26T17:28:05.747Z,44.20
2017-05-26T17:31:04.719Z,43.90
2017-05-26T17:33:33.739Z,43.60
2017-05-26T17:36:02.753Z,44.40
2017-05-26T17:41:33.046Z,43.80
2017-05-26T17:44:08.597Z,43.20
2017-05-26T17:47:05.231Z,43.90
2017-05-26T17:53:04.645Z,43.10
2017-05-26T18:01:35.349Z,42.10
2017-05-26T18:04:08.034Z,42.80
2017-05-26T18:07:05.580Z,43.40
2017-05-26T18:12:35.180Z,42.80
2017-05-26T18:15:04.197Z,43.90
2017-05-26T18:17:33.208Z,43.60
2017-05-26T18:20:02.252Z,43.30
2017-05-26T18:25:31.873Z,43.10
2017-05-26T18:28:00.871Z,43.50
2017-05-26T18:30:29.874Z,44.20
2017-05-26T18:32:58.915Z,44.50
2017-05-26T18:35:27.907Z,44.50
2017-05-26T18:38:07.427Z,44.40
2017-05-26T18:40:36.458Z,43.60
2017-05-26T18:43:05.497Z,45.20
2017-05-26T18:46:04.646Z,45.50
2017-05-26T18:51:48.939Z,46.10
2017-05-26T18:54:17.931Z,45.90
2017-05-26T18:56:46.946Z,46.20
2017-05-26T19:02:16.589Z,46.40
2017-05-26T19:05:05.571Z,47.00
2017-05-26T19:07:34.701Z,47.40
2017-05-26T19:10:06.800Z,48.40
2017-05-26T19:13:06.310Z,50.00
2017-05-26T19:16:07.133Z,50.40
2017-05-26T19:19:06.255Z,51.20
2017-05-26T19:21:35.264Z,51.50
2017-05-26T19:24:04.272Z,51.30
2017-05-26T19:36:02.655Z,52.80
2017-05-26T19:41:33.009Z,53.10
2017-05-26T19:47:08.605Z,52.40
2017-05-26T19:50:05.291Z,52.90
2017-05-26T19:55:35.193Z,54.80
2017-05-26T19:58:04.235Z,54.90
2017-05-26T20:03:33.152Z,55.40
2017-05-26T20:06:07.913Z,55.30
2017-05-26T20:09:06.632Z,55.80
2017-05-26T20:11:35.679Z,56.30
2017-05-26T20:14:04.724Z,56.70
2017-05-26T20:19:34.902Z,56.30
2017-05-26T20:22:03.920Z,56.40
2017-05-26T20:24:32.927Z,54.60
2017-05-26T20:27:01.968Z,54.30
2017-05-26T20:35:32.448Z,57.30
2017-05-26T20:38:01.488Z,57.40
2017-05-26T20:40:30.518Z,57.80
2017-05-26T20:42:59.548Z,58.40
2017-05-26T20:45:28.548Z,58.50
2017-05-26T20:47:57.568Z,58.70
2017-05-26T20:50:26.602Z,58.80
2017-05-26T20:52:55.614Z,59.10
2017-05-26T20:55:24.657Z,59.70
2017-05-26T20:57:53.659Z,60.00
2017-05-26T21:00:22.666Z,60.30
2017-05-26T21:02:51.715Z,57.90
2017-05-26T21:05:20.718Z,59.20
2017-05-26T21:07:49.745Z,61.10
2017-05-26T21:10:18.747Z,56.40
2017-05-26T21:12:47.786Z,55.00
2017-05-26T21:15:16.791Z,54.90
2017-05-26T21:17:45.791Z,57.00
2017-05-26T21:23:15.690Z,59.60
2017-05-26T21:26:05.750Z,59.20
2017-05-26T21:28:34.855Z,59.00
2017-05-26T21:31:03.919Z,58.50
2017-05-26T21:33:32.937Z,59.90
2017-05-26T21:42:06.731Z,57.30
2017-05-26T21:44:35.715Z,55.80
2017-05-26T21:47:04.761Z,55.10
2017-05-26T21:49:33.763Z,54.90
2017-05-26T21:52:02.765Z,54.70
2017-05-26T21:54:31.806Z,55.30
2017-05-26T21:57:00.802Z,54.70
2017-05-26T21:59:29.800Z,55.60
2017-05-26T22:01:59.180Z,55.40
2017-05-26T22:04:28.207Z,57.10
2017-05-26T22:07:07.672Z,59.10
2017-05-26T22:09:36.673Z,60.50
2017-05-26T22:12:05.688Z,60.00
2017-05-26T22:14:34.735Z,61.80
2017-05-26T22:17:03.726Z,64.10
2017-05-26T22:19:32.783Z,64.70
2017-05-26T22:22:08.291Z,64.00
2017-05-26T22:25:05.039Z,64.80
2017-05-26T22:27:34.096Z,64.30
2017-05-26T22:30:03.090Z,64.80
2017-05-26T22:32:32.089Z,63.10
2017-05-26T22:35:07.468Z,63.70
2017-05-26T22:37:36.481Z,65.20
2017-05-26T22:40:05.479Z,64.70
2017-05-26T22:42:34.514Z,65.10
2017-05-26T22:45:03.538Z,65.70
2017-05-26T22:47:32.584Z,65.00
2017-05-26T22:50:01.630Z,64.50
2017-05-26T22:52:30.631Z,65.10
2017-05-26T22:54:59.638Z,65.60
2017-05-26T22:57:28.709Z,65.20
2017-05-26T22:59:57.711Z,62.40
2017-05-26T23:02:26.791Z,60.10
2017-05-26T23:04:55.789Z,59.70
2017-05-26T23:07:24.790Z,59.30
2017-05-26T23:09:53.847Z,59.50
2017-05-26T23:12:22.090Z,59.40
2017-05-26T23:14:51.085Z,58.70
2017-05-26T23:17:20.142Z,58.60
2017-05-26T23:22:28.432Z,58.40
2017-05-26T23:25:07.147Z,59.00
2017-05-26T23:27:36.195Z,58.60
2017-05-26T23:30:06.911Z,58.60
2017-05-26T23:32:36.000Z,58.50
2017-05-26T23:35:05.010Z,60.40
2017-05-26T23:37:34.020Z,61.60
2017-05-26T23:40:09.159Z,60.10
2017-05-26T23:42:38.162Z,61.70
2017-05-26T23:45:07.182Z,63.80
2017-05-26T23:47:36.227Z,62.10
2017-05-26T23:50:05.306Z,62.90
2017-05-26T23:52:34.312Z,64.00
2017-05-26T23:55:03.359Z,61.70
2017-05-26T23:57:32.373Z,62.20
